sensor_id;sensor_type;location;lat;lon;timestamp;temperature;humidity
52203;DHT22;38173;52.850;6.970;2023-08-01T00:01:08;16.20;99.90
52203;DHT22;38173;52.850;6.970;2023-08-01T00:03:34;16.20;99.90
52203;DHT22;38173;52.850;6.970;2023-08-01T00:05:59;16.20;99.90
52203;DHT22;38173;52.850;6.970;2023-08-01T00:08:25;16.20;99.90
52203;DHT22;38173;52.850;6.970;2023-08-01T00:10:51;16.20;99.90
52203;DHT22;38173;52.850;6.970;2023-08-01T00:13:16;16.10;99.90
52203;DHT22;38173;52.850;6.970;2023-08-01T00:15:42;16.10;99.90
52203;DHT22;38173;52.850;6.970;2023-08-01T00:18:08;16.10;99.90
52203;DHT22;38173;52.850;6.970;2023-08-01T00:20:33;16.10;99.90
52203;DHT22;38173;52.850;6.970;2023-08-01T00:22:59;16.10;99.90
52203;DHT22;38173;52.850;6.970;2023-08-01T00:25:25;16.10;99.90
52203;DHT22;38173;52.850;6.970;2023-08-01T00:27:51;16.10;99.90
52203;DHT22;38173;52.850;6.970;2023-08-01T00:30:16;16.10;99.90
52203;DHT22;38173;52.850;6.970;2023-08-01T00:32:42;16.10;99.90
52203;DHT22;38173;52.850;6.970;2023-08-01T00:35:08;16.10;99.90
52203;DHT22;38173;52.850;6.970;2023-08-01T00:37:34;16.10;99.90
52203;DHT22;38173;52.850;6.970;2023-08-01T00:39:59;16.00;99.90
52203;DHT22;38173;52.850;6.970;2023-08-01T00:42:25;16.10;99.90
52203;DHT22;38173;52.850;6.970;2023-08-01T00:44:51;16.00;99.90
52203;DHT22;38173;52.850;6.970;2023-08-01T00:47:16;16.10;99.90
52203;DHT22;38173;52.850;6.970;2023-08-01T00:49:42;16.00;99.90
52203;DHT22;38173;52.850;6.970;2023-08-01T00:52:09;16.10;99.90
52203;DHT22;38173;52.850;6.970;2023-08-01T00:54:35;16.00;99.90
52203;DHT22;38173;52.850;6.970;2023-08-01T00:57:05;16.00;99.90
52203;DHT22;38173;52.850;6.970;2023-08-01T00:59:32;16.10;99.90
52203;DHT22;38173;52.850;6.970;2023-08-01T01:01:59;16.10;99.90
52203;DHT22;38173;52.850;6.970;2023-08-01T01:04:26;16.00;99.90
52203;DHT22;38173;52.850;6.970;2023-08-01T01:06:57;16.00;99.90
52203;DHT22;38173;52.850;6.970;2023-08-01T01:09:24;16.10;99.90
52203;DHT22;38173;52.850;6.970;2023-08-01T01:11:53;16.10;99.90
52203;DHT22;38173;52.850;6.970;2023-08-01T01:14:19;16.10;99.90
52203;DHT22;38173;52.850;6.970;2023-08-01T01:16:44;16.10;99.90
52203;DHT22;38173;52.850;6.970;2023-08-01T01:19:10;16.10;99.90
52203;DHT22;38173;52.850;6.970;2023-08-01T01:21:40;16.10;99.90
52203;DHT22;38173;52.850;6.970;2023-08-01T01:24:09;16.10;99.90
52203;DHT22;38173;52.850;6.970;2023-08-01T01:26:36;16.10;99.90
52203;DHT22;38173;52.850;6.970;2023-08-01T01:29:03;16.10;99.90
52203;DHT22;38173;52.850;6.970;2023-08-01T01:31:30;16.10;99.90
52203;DHT22;38173;52.850;6.970;2023-08-01T01:33:57;16.10;99.90
52203;DHT22;38173;52.850;6.970;2023-08-01T01:36:23;16.10;99.90
52203;DHT22;38173;52.850;6.970;2023-08-01T01:38:49;16.10;99.90
52203;DHT22;38173;52.850;6.970;2023-08-01T01:41:15;16.10;99.90
52203;DHT22;38173;52.850;6.970;2023-08-01T01:43:41;16.00;99.90
52203;DHT22;38173;52.850;6.970;2023-08-01T01:46:07;16.00;99.90
52203;DHT22;38173;52.850;6.970;2023-08-01T01:48:32;16.00;99.90
52203;DHT22;38173;52.850;6.970;2023-08-01T01:50:58;16.00;99.90
52203;DHT22;38173;52.850;6.970;2023-08-01T01:53:24;16.00;99.90
52203;DHT22;38173;52.850;6.970;2023-08-01T01:55:50;16.00;99.90
52203;DHT22;38173;52.850;6.970;2023-08-01T01:58:16;16.00;99.90
52203;DHT22;38173;52.850;6.970;2023-08-01T02:00:41;16.00;99.90
52203;DHT22;38173;52.850;6.970;2023-08-01T02:03:07;15.90;99.90
52203;DHT22;38173;52.850;6.970;2023-08-01T02:05:40;15.90;99.90
52203;DHT22;38173;52.850;6.970;2023-08-01T02:08:07;15.90;99.90
52203;DHT22;38173;52.850;6.970;2023-08-01T02:10:33;15.90;99.90
52203;DHT22;38173;52.850;6.970;2023-08-01T02:12:59;15.90;99.90
52203;DHT22;38173;52.850;6.970;2023-08-01T02:15:25;15.90;99.90
52203;DHT22;38173;52.850;6.970;2023-08-01T02:17:50;15.90;99.90
52203;DHT22;38173;52.850;6.970;2023-08-01T02:20:17;15.90;99.90
52203;DHT22;38173;52.850;6.970;2023-08-01T02:22:43;15.90;99.90
52203;DHT22;38173;52.850;6.970;2023-08-01T02:25:09;15.90;99.90
52203;DHT22;38173;52.850;6.970;2023-08-01T02:27:37;15.90;99.90
52203;DHT22;38173;52.850;6.970;2023-08-01T02:30:04;15.90;99.90
52203;DHT22;38173;52.850;6.970;2023-08-01T02:32:31;15.80;99.90
52203;DHT22;38173;52.850;6.970;2023-08-01T02:34:57;15.80;99.90
52203;DHT22;38173;52.850;6.970;2023-08-01T02:37:22;15.80;99.90
52203;DHT22;38173;52.850;6.970;2023-08-01T02:39:48;15.80;99.90
52203;DHT22;38173;52.850;6.970;2023-08-01T02:42:14;15.80;99.90
52203;DHT22;38173;52.850;6.970;2023-08-01T02:44:40;15.80;99.90
52203;DHT22;38173;52.850;6.970;2023-08-01T02:47:05;15.80;99.90
52203;DHT22;38173;52.850;6.970;2023-08-01T02:49:34;15.70;99.90
52203;DHT22;38173;52.850;6.970;2023-08-01T02:52:00;15.70;99.90
52203;DHT22;38173;52.850;6.970;2023-08-01T02:54:25;15.70;99.90
52203;DHT22;38173;52.850;6.970;2023-08-01T02:56:51;15.70;99.90
52203;DHT22;38173;52.850;6.970;2023-08-01T02:59:17;15.70;99.90
52203;DHT22;38173;52.850;6.970;2023-08-01T03:01:45;15.60;99.90
52203;DHT22;38173;52.850;6.970;2023-08-01T03:04:11;15.60;99.90
52203;DHT22;38173;52.850;6.970;2023-08-01T03:06:40;15.60;99.90
52203;DHT22;38173;52.850;6.970;2023-08-01T03:09:06;15.50;99.90
52203;DHT22;38173;52.850;6.970;2023-08-01T03:11:35;15.50;99.90
52203;DHT22;38173;52.850;6.970;2023-08-01T03:14:01;15.50;99.90
52203;DHT22;38173;52.850;6.970;2023-08-01T03:16:27;15.50;99.90
52203;DHT22;38173;52.850;6.970;2023-08-01T03:18:52;15.50;99.90
52203;DHT22;38173;52.850;6.970;2023-08-01T03:21:18;15.50;99.90
52203;DHT22;38173;52.850;6.970;2023-08-01T03:23:44;15.50;99.90
52203;DHT22;38173;52.850;6.970;2023-08-01T03:26:10;15.50;99.90
52203;DHT22;38173;52.850;6.970;2023-08-01T03:28:35;15.50;99.90
52203;DHT22;38173;52.850;6.970;2023-08-01T03:31:02;15.50;99.90
52203;DHT22;38173;52.850;6.970;2023-08-01T03:33:27;15.40;99.90
52203;DHT22;38173;52.850;6.970;2023-08-01T03:35:53;15.40;99.90
52203;DHT22;38173;52.850;6.970;2023-08-01T03:38:19;15.40;99.90
52203;DHT22;38173;52.850;6.970;2023-08-01T03:40:49;15.40;99.90
52203;DHT22;38173;52.850;6.970;2023-08-01T03:43:14;15.50;99.90
52203;DHT22;38173;52.850;6.970;2023-08-01T03:45:40;15.50;99.90
52203;DHT22;38173;52.850;6.970;2023-08-01T03:48:06;15.40;99.90
52203;DHT22;38173;52.850;6.970;2023-08-01T03:50:32;15.40;99.90
52203;DHT22;38173;52.850;6.970;2023-08-01T03:52:57;15.40;99.90
52203;DHT22;38173;52.850;6.970;2023-08-01T03:55:23;15.40;99.90
52203;DHT22;38173;52.850;6.970;2023-08-01T03:57:49;15.40;99.90
52203;DHT22;38173;52.850;6.970;2023-08-01T04:00:14;15.40;99.90
52203;DHT22;38173;52.850;6.970;2023-08-01T04:02:41;15.30;99.90
52203;DHT22;38173;52.850;6.970;2023-08-01T04:05:07;15.30;99.90
52203;DHT22;38173;52.850;6.970;2023-08-01T04:07:35;15.30;99.90
52203;DHT22;38173;52.850;6.970;2023-08-01T04:10:02;15.30;99.90
52203;DHT22;38173;52.850;6.970;2023-08-01T04:12:29;15.30;99.90
52203;DHT22;38173;52.850;6.970;2023-08-01T04:14:55;15.30;99.90
52203;DHT22;38173;52.850;6.970;2023-08-01T04:17:21;15.30;99.90
52203;DHT22;38173;52.850;6.970;2023-08-01T04:19:46;15.30;99.90
52203;DHT22;38173;52.850;6.970;2023-08-01T04:22:12;15.30;99.90
52203;DHT22;38173;52.850;6.970;2023-08-01T04:24:38;15.30;99.90
52203;DHT22;38173;52.850;6.970;2023-08-01T04:27:04;15.20;99.90
52203;DHT22;38173;52.850;6.970;2023-08-01T04:29:30;15.20;99.90
52203;DHT22;38173;52.850;6.970;2023-08-01T04:31:56;15.20;99.90
52203;DHT22;38173;52.850;6.970;2023-08-01T04:34:22;15.10;99.90
52203;DHT22;38173;52.850;6.970;2023-08-01T04:36:48;15.10;99.90
52203;DHT22;38173;52.850;6.970;2023-08-01T04:39:14;15.00;99.90
52203;DHT22;38173;52.850;6.970;2023-08-01T04:41:40;15.00;99.90
52203;DHT22;38173;52.850;6.970;2023-08-01T04:44:05;15.00;99.90
52203;DHT22;38173;52.850;6.970;2023-08-01T04:46:32;14.90;99.90
52203;DHT22;38173;52.850;6.970;2023-08-01T04:48:58;14.90;99.90
52203;DHT22;38173;52.850;6.970;2023-08-01T04:51:24;14.90;99.90
52203;DHT22;38173;52.850;6.970;2023-08-01T04:53:50;14.90;99.90
52203;DHT22;38173;52.850;6.970;2023-08-01T04:56:16;14.80;99.90
52203;DHT22;38173;52.850;6.970;2023-08-01T04:58:42;14.80;99.90
52203;DHT22;38173;52.850;6.970;2023-08-01T05:01:11;14.80;99.90
52203;DHT22;38173;52.850;6.970;2023-08-01T05:03:37;14.80;99.90
52203;DHT22;38173;52.850;6.970;2023-08-01T05:06:02;14.80;99.90
52203;DHT22;38173;52.850;6.970;2023-08-01T05:08:28;14.70;99.90
52203;DHT22;38173;52.850;6.970;2023-08-01T05:10:54;14.80;99.90
52203;DHT22;38173;52.850;6.970;2023-08-01T05:13:20;14.80;99.90
52203;DHT22;38173;52.850;6.970;2023-08-01T05:15:46;14.80;99.90
52203;DHT22;38173;52.850;6.970;2023-08-01T05:18:16;14.90;99.90
52203;DHT22;38173;52.850;6.970;2023-08-01T05:20:43;14.90;99.90
52203;DHT22;38173;52.850;6.970;2023-08-01T05:23:09;14.90;99.90
52203;DHT22;38173;52.850;6.970;2023-08-01T05:25:35;14.90;99.90
52203;DHT22;38173;52.850;6.970;2023-08-01T05:28:00;14.90;99.90
52203;DHT22;38173;52.850;6.970;2023-08-01T05:30:26;15.00;99.90
52203;DHT22;38173;52.850;6.970;2023-08-01T05:32:52;15.10;99.90
52203;DHT22;38173;52.850;6.970;2023-08-01T05:35:19;15.10;99.90
52203;DHT22;38173;52.850;6.970;2023-08-01T05:37:45;15.20;99.90
52203;DHT22;38173;52.850;6.970;2023-08-01T05:40:11;15.30;99.90
52203;DHT22;38173;52.850;6.970;2023-08-01T05:42:40;15.30;99.90
52203;DHT22;38173;52.850;6.970;2023-08-01T05:45:06;15.40;99.90
52203;DHT22;38173;52.850;6.970;2023-08-01T05:47:32;15.40;99.90
52203;DHT22;38173;52.850;6.970;2023-08-01T05:49:58;15.40;99.90
52203;DHT22;38173;52.850;6.970;2023-08-01T05:52:23;15.50;99.90
52203;DHT22;38173;52.850;6.970;2023-08-01T05:54:49;15.60;99.90
52203;DHT22;38173;52.850;6.970;2023-08-01T05:57:16;15.70;99.90
52203;DHT22;38173;52.850;6.970;2023-08-01T05:59:42;15.80;99.90
52203;DHT22;38173;52.850;6.970;2023-08-01T06:02:07;15.80;99.90
52203;DHT22;38173;52.850;6.970;2023-08-01T06:04:33;15.90;99.90
52203;DHT22;38173;52.850;6.970;2023-08-01T06:06:59;15.90;99.90
52203;DHT22;38173;52.850;6.970;2023-08-01T06:09:25;15.90;99.90
52203;DHT22;38173;52.850;6.970;2023-08-01T06:11:51;15.90;99.90
52203;DHT22;38173;52.850;6.970;2023-08-01T06:14:17;15.90;99.90
52203;DHT22;38173;52.850;6.970;2023-08-01T06:16:43;16.00;99.90
52203;DHT22;38173;52.850;6.970;2023-08-01T06:19:08;15.90;99.90
52203;DHT22;38173;52.850;6.970;2023-08-01T06:21:34;15.90;99.90
52203;DHT22;38173;52.850;6.970;2023-08-01T06:24:00;15.90;99.90
52203;DHT22;38173;52.850;6.970;2023-08-01T06:26:27;15.90;99.90
52203;DHT22;38173;52.850;6.970;2023-08-01T06:28:53;16.00;99.90
52203;DHT22;38173;52.850;6.970;2023-08-01T06:31:22;16.00;99.90
52203;DHT22;38173;52.850;6.970;2023-08-01T06:33:48;16.00;99.90
52203;DHT22;38173;52.850;6.970;2023-08-01T06:36:14;16.10;99.90
52203;DHT22;38173;52.850;6.970;2023-08-01T06:38:42;16.10;99.90
52203;DHT22;38173;52.850;6.970;2023-08-01T06:41:07;16.20;99.90
52203;DHT22;38173;52.850;6.970;2023-08-01T06:43:33;16.30;99.90
52203;DHT22;38173;52.850;6.970;2023-08-01T06:45:59;16.30;99.90
52203;DHT22;38173;52.850;6.970;2023-08-01T06:48:31;16.40;99.90
52203;DHT22;38173;52.850;6.970;2023-08-01T06:50:58;16.50;99.90
52203;DHT22;38173;52.850;6.970;2023-08-01T06:53:24;16.50;99.90
52203;DHT22;38173;52.850;6.970;2023-08-01T06:55:49;16.50;99.90
52203;DHT22;38173;52.850;6.970;2023-08-01T06:58:16;16.50;99.90
52203;DHT22;38173;52.850;6.970;2023-08-01T07:00:42;16.50;99.90
52203;DHT22;38173;52.850;6.970;2023-08-01T07:03:13;16.50;99.90
52203;DHT22;38173;52.850;6.970;2023-08-01T07:05:42;16.40;99.90
52203;DHT22;38173;52.850;6.970;2023-08-01T07:08:10;16.50;99.90
52203;DHT22;38173;52.850;6.970;2023-08-01T07:10:36;16.50;99.90
52203;DHT22;38173;52.850;6.970;2023-08-01T07:13:04;16.50;99.90
52203;DHT22;38173;52.850;6.970;2023-08-01T07:15:32;16.50;99.90
52203;DHT22;38173;52.850;6.970;2023-08-01T07:18:00;16.70;99.90
52203;DHT22;38173;52.850;6.970;2023-08-01T07:20:27;16.80;99.90
52203;DHT22;38173;52.850;6.970;2023-08-01T07:22:53;16.90;99.90
52203;DHT22;38173;52.850;6.970;2023-08-01T07:25:19;17.00;99.90
52203;DHT22;38173;52.850;6.970;2023-08-01T07:27:46;17.10;99.90
52203;DHT22;38173;52.850;6.970;2023-08-01T07:30:11;17.10;99.90
52203;DHT22;38173;52.850;6.970;2023-08-01T07:32:38;17.20;99.90
52203;DHT22;38173;52.850;6.970;2023-08-01T07:35:06;17.20;99.90
52203;DHT22;38173;52.850;6.970;2023-08-01T07:37:33;17.40;99.90
52203;DHT22;38173;52.850;6.970;2023-08-01T07:39:59;17.50;99.90
52203;DHT22;38173;52.850;6.970;2023-08-01T07:42:25;17.70;99.90
52203;DHT22;38173;52.850;6.970;2023-08-01T07:44:50;17.80;99.90
52203;DHT22;38173;52.850;6.970;2023-08-01T07:47:16;17.90;99.90
52203;DHT22;38173;52.850;6.970;2023-08-01T07:49:42;18.00;99.90
52203;DHT22;38173;52.850;6.970;2023-08-01T07:52:08;18.20;99.90
52203;DHT22;38173;52.850;6.970;2023-08-01T07:54:34;18.30;99.90
52203;DHT22;38173;52.850;6.970;2023-08-01T07:57:00;18.40;99.90
52203;DHT22;38173;52.850;6.970;2023-08-01T07:59:25;18.40;99.90
52203;DHT22;38173;52.850;6.970;2023-08-01T08:01:51;18.30;99.90
52203;DHT22;38173;52.850;6.970;2023-08-01T08:04:18;18.10;99.90
52203;DHT22;38173;52.850;6.970;2023-08-01T08:06:44;18.00;99.90
52203;DHT22;38173;52.850;6.970;2023-08-01T08:09:12;17.90;99.90
52203;DHT22;38173;52.850;6.970;2023-08-01T08:11:38;17.70;99.90
52203;DHT22;38173;52.850;6.970;2023-08-01T08:14:03;17.60;99.90
52203;DHT22;38173;52.850;6.970;2023-08-01T08:16:29;17.60;99.90
52203;DHT22;38173;52.850;6.970;2023-08-01T08:18:55;17.60;99.90
52203;DHT22;38173;52.850;6.970;2023-08-01T08:21:21;17.50;99.90
52203;DHT22;38173;52.850;6.970;2023-08-01T08:23:47;17.40;99.90
52203;DHT22;38173;52.850;6.970;2023-08-01T08:26:12;17.40;99.90
52203;DHT22;38173;52.850;6.970;2023-08-01T08:28:38;17.40;99.90
52203;DHT22;38173;52.850;6.970;2023-08-01T08:31:07;17.40;99.90
52203;DHT22;38173;52.850;6.970;2023-08-01T08:33:33;17.40;99.90
52203;DHT22;38173;52.850;6.970;2023-08-01T08:35:59;17.50;99.90
52203;DHT22;38173;52.850;6.970;2023-08-01T08:38:24;17.50;99.90
52203;DHT22;38173;52.850;6.970;2023-08-01T08:40:59;17.50;99.90
52203;DHT22;38173;52.850;6.970;2023-08-01T08:43:26;17.50;99.90
52203;DHT22;38173;52.850;6.970;2023-08-01T08:45:54;17.30;99.90
52203;DHT22;38173;52.850;6.970;2023-08-01T08:48:20;17.20;99.90
52203;DHT22;38173;52.850;6.970;2023-08-01T08:50:57;17.00;99.90
52203;DHT22;38173;52.850;6.970;2023-08-01T08:53:25;16.90;99.90
52203;DHT22;38173;52.850;6.970;2023-08-01T08:55:51;16.80;99.90
52203;DHT22;38173;52.850;6.970;2023-08-01T08:58:18;16.60;99.90
52203;DHT22;38173;52.850;6.970;2023-08-01T09:00:53;16.50;99.90
52203;DHT22;38173;52.850;6.970;2023-08-01T09:03:19;16.40;99.90
52203;DHT22;38173;52.850;6.970;2023-08-01T09:05:54;16.40;99.90
52203;DHT22;38173;52.850;6.970;2023-08-01T09:08:24;16.30;99.90
52203;DHT22;38173;52.850;6.970;2023-08-01T09:10:50;16.20;99.90
52203;DHT22;38173;52.850;6.970;2023-08-01T09:13:18;16.20;99.90
52203;DHT22;38173;52.850;6.970;2023-08-01T09:15:46;16.30;99.90
52203;DHT22;38173;52.850;6.970;2023-08-01T09:18:15;16.30;99.90
52203;DHT22;38173;52.850;6.970;2023-08-01T09:20:50;16.30;99.90
52203;DHT22;38173;52.850;6.970;2023-08-01T09:23:17;16.30;99.90
52203;DHT22;38173;52.850;6.970;2023-08-01T09:25:43;16.40;99.90
52203;DHT22;38173;52.850;6.970;2023-08-01T09:28:20;16.50;99.90
52203;DHT22;38173;52.850;6.970;2023-08-01T09:30:51;16.50;99.90
52203;DHT22;38173;52.850;6.970;2023-08-01T09:33:18;16.50;99.90
52203;DHT22;38173;52.850;6.970;2023-08-01T09:35:44;16.70;99.90
52203;DHT22;38173;52.850;6.970;2023-08-01T09:38:16;16.80;99.90
52203;DHT22;38173;52.850;6.970;2023-08-01T09:40:46;17.10;99.90
52203;DHT22;38173;52.850;6.970;2023-08-01T09:43:13;17.30;99.90
52203;DHT22;38173;52.850;6.970;2023-08-01T09:45:52;17.30;99.90
52203;DHT22;38173;52.850;6.970;2023-08-01T09:48:29;17.40;99.90
52203;DHT22;38173;52.850;6.970;2023-08-01T09:51:09;17.30;99.90
52203;DHT22;38173;52.850;6.970;2023-08-01T09:53:46;17.20;99.90
52203;DHT22;38173;52.850;6.970;2023-08-01T09:56:14;17.00;99.90
52203;DHT22;38173;52.850;6.970;2023-08-01T09:58:42;16.80;99.90
52203;DHT22;38173;52.850;6.970;2023-08-01T10:01:08;16.70;99.90
52203;DHT22;38173;52.850;6.970;2023-08-01T10:03:34;16.50;99.90
52203;DHT22;38173;52.850;6.970;2023-08-01T10:06:00;16.40;99.90
52203;DHT22;38173;52.850;6.970;2023-08-01T10:08:29;16.30;99.90
52203;DHT22;38173;52.850;6.970;2023-08-01T10:10:54;16.30;99.90
52203;DHT22;38173;52.850;6.970;2023-08-01T10:13:24;16.60;99.90
52203;DHT22;38173;52.850;6.970;2023-08-01T10:15:52;16.90;99.90
52203;DHT22;38173;52.850;6.970;2023-08-01T10:18:19;17.10;99.90
52203;DHT22;38173;52.850;6.970;2023-08-01T10:20:47;17.30;99.90
52203;DHT22;38173;52.850;6.970;2023-08-01T10:23:13;17.50;99.90
52203;DHT22;38173;52.850;6.970;2023-08-01T10:25:39;17.50;99.90
52203;DHT22;38173;52.850;6.970;2023-08-01T10:28:08;17.50;99.90
52203;DHT22;38173;52.850;6.970;2023-08-01T10:30:40;17.60;99.90
52203;DHT22;38173;52.850;6.970;2023-08-01T10:33:08;17.60;99.90
52203;DHT22;38173;52.850;6.970;2023-08-01T10:35:41;17.80;99.90
52203;DHT22;38173;52.850;6.970;2023-08-01T10:38:09;18.10;99.90
52203;DHT22;38173;52.850;6.970;2023-08-01T10:40:37;18.40;99.90
52203;DHT22;38173;52.850;6.970;2023-08-01T10:43:24;18.60;99.90
52203;DHT22;38173;52.850;6.970;2023-08-01T10:46:08;18.70;99.90
52203;DHT22;38173;52.850;6.970;2023-08-01T10:48:34;18.60;99.90
52203;DHT22;38173;52.850;6.970;2023-08-01T10:51:03;18.50;99.90
52203;DHT22;38173;52.850;6.970;2023-08-01T10:53:38;18.30;99.90
52203;DHT22;38173;52.850;6.970;2023-08-01T10:56:07;18.10;99.90
52203;DHT22;38173;52.850;6.970;2023-08-01T10:58:34;18.10;99.90
52203;DHT22;38173;52.850;6.970;2023-08-01T11:01:00;18.00;99.90
52203;DHT22;38173;52.850;6.970;2023-08-01T11:03:39;17.90;99.90
52203;DHT22;38173;52.850;6.970;2023-08-01T11:06:07;17.90;99.90
52203;DHT22;38173;52.850;6.970;2023-08-01T11:08:40;17.80;99.90
52203;DHT22;38173;52.850;6.970;2023-08-01T11:11:10;17.70;99.90
52203;DHT22;38173;52.850;6.970;2023-08-01T11:13:36;17.60;99.90
52203;DHT22;38173;52.850;6.970;2023-08-01T11:16:03;17.60;99.90
52203;DHT22;38173;52.850;6.970;2023-08-01T11:18:30;17.50;99.90
52203;DHT22;38173;52.850;6.970;2023-08-01T11:20:56;17.50;99.90
52203;DHT22;38173;52.850;6.970;2023-08-01T11:23:30;17.40;99.90
52203;DHT22;38173;52.850;6.970;2023-08-01T11:25:55;17.50;99.90
52203;DHT22;38173;52.850;6.970;2023-08-01T11:28:22;17.50;99.90
52203;DHT22;38173;52.850;6.970;2023-08-01T11:30:49;17.50;99.90
52203;DHT22;38173;52.850;6.970;2023-08-01T11:33:22;17.50;99.90
52203;DHT22;38173;52.850;6.970;2023-08-01T11:35:55;17.40;99.90
52203;DHT22;38173;52.850;6.970;2023-08-01T11:38:29;17.30;99.90
52203;DHT22;38173;52.850;6.970;2023-08-01T11:40:58;17.30;99.90
52203;DHT22;38173;52.850;6.970;2023-08-01T11:43:24;17.30;99.90
52203;DHT22;38173;52.850;6.970;2023-08-01T11:45:55;17.50;99.90
52203;DHT22;38173;52.850;6.970;2023-08-01T11:48:25;17.80;99.90
52203;DHT22;38173;52.850;6.970;2023-08-01T11:50:58;18.30;99.90
52203;DHT22;38173;52.850;6.970;2023-08-01T11:53:24;18.60;99.90
52203;DHT22;38173;52.850;6.970;2023-08-01T11:55:50;18.60;99.90
52203;DHT22;38173;52.850;6.970;2023-08-01T11:58:41;18.50;99.90
52203;DHT22;38173;52.850;6.970;2023-08-01T12:01:12;18.20;99.90
52203;DHT22;38173;52.850;6.970;2023-08-01T12:03:52;17.90;99.90
52203;DHT22;38173;52.850;6.970;2023-08-01T12:06:21;17.80;99.90
52203;DHT22;38173;52.850;6.970;2023-08-01T12:08:50;17.60;99.90
52203;DHT22;38173;52.850;6.970;2023-08-01T12:11:27;17.50;99.90
52203;DHT22;38173;52.850;6.970;2023-08-01T12:14:07;17.30;99.90
52203;DHT22;38173;52.850;6.970;2023-08-01T12:16:37;17.20;99.90
52203;DHT22;38173;52.850;6.970;2023-08-01T12:19:04;17.30;99.90
52203;DHT22;38173;52.850;6.970;2023-08-01T12:21:32;17.30;99.90
52203;DHT22;38173;52.850;6.970;2023-08-01T12:23:58;17.60;99.90
52203;DHT22;38173;52.850;6.970;2023-08-01T12:26:24;17.70;99.90
52203;DHT22;38173;52.850;6.970;2023-08-01T12:28:50;17.90;99.90
52203;DHT22;38173;52.850;6.970;2023-08-01T12:31:19;17.90;99.90
52203;DHT22;38173;52.850;6.970;2023-08-01T12:33:45;17.90;99.90
52203;DHT22;38173;52.850;6.970;2023-08-01T12:36:15;17.90;99.90
52203;DHT22;38173;52.850;6.970;2023-08-01T12:38:41;17.80;99.90
52203;DHT22;38173;52.850;6.970;2023-08-01T12:41:07;17.80;99.90
52203;DHT22;38173;52.850;6.970;2023-08-01T12:43:33;17.80;99.90
52203;DHT22;38173;52.850;6.970;2023-08-01T12:45:59;18.00;99.90
52203;DHT22;38173;52.850;6.970;2023-08-01T12:48:29;18.30;99.90
52203;DHT22;38173;52.850;6.970;2023-08-01T12:50:55;18.50;99.90
52203;DHT22;38173;52.850;6.970;2023-08-01T12:53:23;18.70;99.90
52203;DHT22;38173;52.850;6.970;2023-08-01T12:55:51;19.10;99.90
52203;DHT22;38173;52.850;6.970;2023-08-01T12:58:18;19.50;99.90
52203;DHT22;38173;52.850;6.970;2023-08-01T13:00:44;19.90;99.90
52203;DHT22;38173;52.850;6.970;2023-08-01T13:03:11;20.20;99.90
52203;DHT22;38173;52.850;6.970;2023-08-01T13:05:38;20.10;99.90
52203;DHT22;38173;52.850;6.970;2023-08-01T13:08:06;19.80;99.90
52203;DHT22;38173;52.850;6.970;2023-08-01T13:10:36;19.60;99.90
52203;DHT22;38173;52.850;6.970;2023-08-01T13:13:03;19.50;99.90
52203;DHT22;38173;52.850;6.970;2023-08-01T13:15:29;19.30;99.90
52203;DHT22;38173;52.850;6.970;2023-08-01T13:17:55;19.20;99.90
52203;DHT22;38173;52.850;6.970;2023-08-01T13:20:22;19.10;99.90
52203;DHT22;38173;52.850;6.970;2023-08-01T13:22:49;19.00;99.90
52203;DHT22;38173;52.850;6.970;2023-08-01T13:25:15;18.90;99.90
52203;DHT22;38173;52.850;6.970;2023-08-01T13:27:42;18.90;99.90
52203;DHT22;38173;52.850;6.970;2023-08-01T13:30:08;18.90;99.90
52203;DHT22;38173;52.850;6.970;2023-08-01T13:32:35;19.00;99.90
52203;DHT22;38173;52.850;6.970;2023-08-01T13:35:01;19.30;99.90
52203;DHT22;38173;52.850;6.970;2023-08-01T13:37:27;19.70;99.90
52203;DHT22;38173;52.850;6.970;2023-08-01T13:39:57;20.50;99.90
52203;DHT22;38173;52.850;6.970;2023-08-01T13:42:23;21.20;99.90
52203;DHT22;38173;52.850;6.970;2023-08-01T13:44:49;21.40;99.90
52203;DHT22;38173;52.850;6.970;2023-08-01T13:47:14;21.40;99.90
52203;DHT22;38173;52.850;6.970;2023-08-01T13:49:40;21.30;99.90
52203;DHT22;38173;52.850;6.970;2023-08-01T13:52:06;21.10;99.90
52203;DHT22;38173;52.850;6.970;2023-08-01T13:54:32;20.90;99.90
52203;DHT22;38173;52.850;6.970;2023-08-01T13:56:58;20.60;99.90
52203;DHT22;38173;52.850;6.970;2023-08-01T13:59:23;20.40;99.90
52203;DHT22;38173;52.850;6.970;2023-08-01T14:01:49;20.30;99.90
52203;DHT22;38173;52.850;6.970;2023-08-01T14:04:15;20.30;99.90
52203;DHT22;38173;52.850;6.970;2023-08-01T14:06:41;20.10;99.90
52203;DHT22;38173;52.850;6.970;2023-08-01T14:09:10;20.20;99.90
52203;DHT22;38173;52.850;6.970;2023-08-01T14:11:36;20.10;99.90
52203;DHT22;38173;52.850;6.970;2023-08-01T14:14:02;20.20;99.90
52203;DHT22;38173;52.850;6.970;2023-08-01T14:16:29;20.30;99.90
52203;DHT22;38173;52.850;6.970;2023-08-01T14:18:56;20.20;99.90
52203;DHT22;38173;52.850;6.970;2023-08-01T14:21:22;20.10;99.90
52203;DHT22;38173;52.850;6.970;2023-08-01T14:23:51;20.00;99.90
52203;DHT22;38173;52.850;6.970;2023-08-01T14:26:17;19.90;99.90
52203;DHT22;38173;52.850;6.970;2023-08-01T14:28:42;19.70;99.90
52203;DHT22;38173;52.850;6.970;2023-08-01T14:31:11;19.90;99.90
52203;DHT22;38173;52.850;6.970;2023-08-01T14:33:37;20.00;99.90
52203;DHT22;38173;52.850;6.970;2023-08-01T14:36:08;20.10;99.90
52203;DHT22;38173;52.850;6.970;2023-08-01T14:38:34;20.40;99.90
52203;DHT22;38173;52.850;6.970;2023-08-01T14:41:02;20.60;99.90
52203;DHT22;38173;52.850;6.970;2023-08-01T14:43:28;20.80;99.90
52203;DHT22;38173;52.850;6.970;2023-08-01T14:45:54;20.80;99.90
52203;DHT22;38173;52.850;6.970;2023-08-01T14:48:19;20.80;99.90
52203;DHT22;38173;52.850;6.970;2023-08-01T14:50:46;20.80;99.90
52203;DHT22;38173;52.850;6.970;2023-08-01T14:53:12;20.70;99.90
52203;DHT22;38173;52.850;6.970;2023-08-01T14:55:37;20.50;99.90
52203;DHT22;38173;52.850;6.970;2023-08-01T14:58:03;20.20;99.90
52203;DHT22;38173;52.850;6.970;2023-08-01T15:00:35;20.10;99.90
52203;DHT22;38173;52.850;6.970;2023-08-01T15:03:01;19.90;99.90
52203;DHT22;38173;52.850;6.970;2023-08-01T15:05:27;19.80;99.90
52203;DHT22;38173;52.850;6.970;2023-08-01T15:07:52;19.70;99.90
52203;DHT22;38173;52.850;6.970;2023-08-01T15:10:18;19.50;99.90
52203;DHT22;38173;52.850;6.970;2023-08-01T15:12:44;19.30;99.90
52203;DHT22;38173;52.850;6.970;2023-08-01T15:15:10;19.10;99.90
52203;DHT22;38173;52.850;6.970;2023-08-01T15:17:36;19.20;99.90
52203;DHT22;38173;52.850;6.970;2023-08-01T15:20:02;19.20;99.90
52203;DHT22;38173;52.850;6.970;2023-08-01T15:22:28;19.30;99.90
52203;DHT22;38173;52.850;6.970;2023-08-01T15:24:54;19.40;99.90
52203;DHT22;38173;52.850;6.970;2023-08-01T15:27:20;19.60;99.90
52203;DHT22;38173;52.850;6.970;2023-08-01T15:29:47;19.80;99.90